createdAt,value
2018-08-04T00:00:26.369Z,62.32
2018-08-04T00:02:54.640Z,62.97
2018-08-04T00:05:23.049Z,62.34
2018-08-04T00:07:51.338Z,61.74
2018-08-04T00:10:21.521Z,62.10
2018-08-04T00:12:50.903Z,62.46
2018-08-04T00:15:19.492Z,62.39
2018-08-04T00:17:48.553Z,62.51
2018-08-04T00:20:17.107Z,63.01
2018-08-04T00:22:45.428Z,62.87
2018-08-04T00:25:13.736Z,62.93
2018-08-04T00:27:43.173Z,63.39
2018-08-04T00:30:13.648Z,62.95
2018-08-04T00:32:43.679Z,63.10
2018-08-04T00:35:12.436Z,62.99
2018-08-04T00:37:40.764Z,63.43
2018-08-04T00:40:11.022Z,63.56
2018-08-04T00:42:39.347Z,62.80
2018-08-04T00:45:07.949Z,63.15
2018-08-04T00:47:36.293Z,63.55
2018-08-04T00:50:05.449Z,63.75
2018-08-04T00:52:33.753Z,64.00
2018-08-04T00:55:02.076Z,64.36
2018-08-04T00:57:30.481Z,64.01
2018-08-04T00:59:58.779Z,64.29
2018-08-04T01:02:28.333Z,64.26
2018-08-04T01:04:56.620Z,64.79
2018-08-04T01:07:24.969Z,65.16
2018-08-04T01:09:53.374Z,64.77
2018-08-04T01:12:21.657Z,64.91
2018-08-04T01:14:49.997Z,64.95
2018-08-04T01:17:18.261Z,65.90
2018-08-04T01:19:46.698Z,65.35
2018-08-04T01:22:14.969Z,65.43
2018-08-04T01:24:43.264Z,65.91
2018-08-04T01:27:11.533Z,65.79
2018-08-04T01:29:39.809Z,65.84
2018-08-04T01:32:08.076Z,66.45
2018-08-04T01:34:36.363Z,66.23
2018-08-04T01:37:04.764Z,65.92
2018-08-04T01:39:33.057Z,66.03
2018-08-04T01:42:01.371Z,66.37
2018-08-04T01:44:29.657Z,65.89
2018-08-04T01:46:57.965Z,65.79
2018-08-04T01:49:26.250Z,65.86
2018-08-04T01:51:54.517Z,66.28
2018-08-04T01:54:22.804Z,66.45
2018-08-04T01:56:51.122Z,66.43
2018-08-04T01:59:19.457Z,66.42
2018-08-04T02:01:47.785Z,66.15
2018-08-04T02:04:17.192Z,66.34
2018-08-04T02:06:45.497Z,66.44
2018-08-04T02:09:13.828Z,66.59
2018-08-04T02:11:42.158Z,66.73
2018-08-04T02:14:10.425Z,66.58
2018-08-04T02:16:38.901Z,67.11
2018-08-04T02:19:07.261Z,67.04
2018-08-04T02:21:35.572Z,67.51
2018-08-04T02:24:03.841Z,66.93
2018-08-04T02:26:32.138Z,68.12
2018-08-04T02:29:00.453Z,68.00
2018-08-04T02:31:28.730Z,67.95
2018-08-04T02:33:56.984Z,70.18
2018-08-04T02:36:25.281Z,71.37
2018-08-04T02:38:53.576Z,71.95
2018-08-04T02:41:21.829Z,72.45
2018-08-04T02:43:50.101Z,72.32
2018-08-04T02:46:18.439Z,72.51
2018-08-04T02:48:46.721Z,71.11
2018-08-04T02:51:14.990Z,71.86
2018-08-04T02:53:43.377Z,71.86
2018-08-04T02:56:11.617Z,71.81
2018-08-04T02:58:39.881Z,72.13
2018-08-04T03:01:08.133Z,72.78
2018-08-04T03:03:36.429Z,73.16
2018-08-04T03:06:04.980Z,73.49
2018-08-04T03:08:33.297Z,74.09
2018-08-04T03:11:01.536Z,74.22
2018-08-04T03:13:29.789Z,73.61
2018-08-04T03:15:58.025Z,74.13
2018-08-04T03:18:26.383Z,74.31
2018-08-04T03:20:54.749Z,73.39
2018-08-04T03:23:22.997Z,73.49
2018-08-04T03:25:51.277Z,72.82
2018-08-04T03:28:19.528Z,72.55
2018-08-04T03:30:48.865Z,72.93
2018-08-04T03:33:17.118Z,73.19
2018-08-04T03:35:45.420Z,72.52
2018-08-04T03:38:13.665Z,72.03
2018-08-04T03:40:41.941Z,71.95
2018-08-04T03:43:10.252Z,72.44
2018-08-04T03:45:38.560Z,72.73
2018-08-04T03:48:06.845Z,72.93
2018-08-04T03:50:35.110Z,72.04
2018-08-04T03:53:03.364Z,72.54
2018-08-04T03:55:31.658Z,72.72
2018-08-04T03:57:59.925Z,72.87
2018-08-04T04:00:28.216Z,72.49
2018-08-04T04:02:56.465Z,72.02
2018-08-04T04:05:24.864Z,72.65
2018-08-04T04:07:53.101Z,72.40
2018-08-04T04:10:21.389Z,72.30
2018-08-04T04:12:49.677Z,73.22
2018-08-04T04:15:17.909Z,72.50
2018-08-04T04:17:48.236Z,72.17
2018-08-04T04:20:18.128Z,72.16
2018-08-04T04:22:46.533Z,71.89
2018-08-04T04:25:14.826Z,71.46
2018-08-04T04:27:43.489Z,72.24
2018-08-04T04:30:12.255Z,71.81
2018-08-04T04:32:40.536Z,71.42
2018-08-04T04:35:08.796Z,71.79
2018-08-04T04:37:37.164Z,71.78
2018-08-04T04:40:06.596Z,72.30
2018-08-04T04:42:34.968Z,72.11
2018-08-04T04:45:03.337Z,71.76
2018-08-04T04:47:31.629Z,71.00
2018-08-04T04:50:00.069Z,70.94
2018-08-04T04:52:28.373Z,70.63
2018-08-04T04:54:56.878Z,71.03
2018-08-04T04:57:25.183Z,71.43
2018-08-04T04:59:53.438Z,71.02
2018-08-04T05:02:21.801Z,70.55
2018-08-04T05:04:50.274Z,69.33
2018-08-04T05:08:22.005Z,68.93
2018-08-04T05:10:50.382Z,68.18
2018-08-04T05:13:18.674Z,67.18
2018-08-04T05:15:46.920Z,67.54
2018-08-04T05:18:15.317Z,67.20
2018-08-04T05:20:43.553Z,67.20
2018-08-04T05:23:11.877Z,67.33
2018-08-04T05:25:40.113Z,66.64
2018-08-04T05:28:08.369Z,68.56
2018-08-04T05:30:36.634Z,68.47
2018-08-04T05:33:05.056Z,67.71
2018-08-04T05:35:33.337Z,67.63
2018-08-04T05:38:01.577Z,67.99
2018-08-04T05:40:29.872Z,69.05
2018-08-04T05:42:58.144Z,68.85
2018-08-04T05:45:26.465Z,68.46
2018-08-04T05:47:54.708Z,67.79
2018-08-04T05:50:22.985Z,68.17
2018-08-04T05:52:51.228Z,66.85
2018-08-04T05:55:19.512Z,68.10
2018-08-04T05:57:47.745Z,67.19
2018-08-04T06:00:16.019Z,67.28
2018-08-04T06:02:44.257Z,67.45
2018-08-04T06:05:12.573Z,68.53
2018-08-04T06:07:40.968Z,68.88
2018-08-04T06:10:09.265Z,69.25
2018-08-04T06:12:37.517Z,69.38
2018-08-04T06:15:05.872Z,70.62
2018-08-04T06:17:34.153Z,70.71
2018-08-04T06:20:02.416Z,71.28
2018-08-04T06:22:30.715Z,71.95
2018-08-04T06:25:00.030Z,70.42
2018-08-04T06:27:28.279Z,68.35
2018-08-04T06:29:56.697Z,67.37
2018-08-04T06:32:24.961Z,65.71
2018-08-04T06:34:53.512Z,64.93
2018-08-04T06:37:21.881Z,65.38
2018-08-04T06:39:51.317Z,65.60
2018-08-04T06:42:19.581Z,64.07
2018-08-04T06:44:49.033Z,63.90
2018-08-04T06:47:17.299Z,62.59
2018-08-04T06:49:45.544Z,63.46
2018-08-04T06:52:13.801Z,63.32
2018-08-04T06:54:43.072Z,61.89
2018-08-04T06:57:11.356Z,60.75
2018-08-04T06:59:39.629Z,60.37
2018-08-04T07:02:07.905Z,61.81
2018-08-04T07:04:36.137Z,61.38
2018-08-04T07:07:04.441Z,60.75
2018-08-04T07:09:32.681Z,61.01
2018-08-04T07:12:01.019Z,60.93
2018-08-04T07:14:29.266Z,59.76
2018-08-04T07:16:57.549Z,59.15
2018-08-04T07:19:25.789Z,59.13
2018-08-04T07:21:56.256Z,58.34
2018-08-04T07:24:24.525Z,59.22
2018-08-04T07:26:52.796Z,58.37
2018-08-04T07:29:21.061Z,58.39
2018-08-04T07:31:49.332Z,58.10
2018-08-04T07:34:17.656Z,57.40
2018-08-04T07:36:45.861Z,57.05
2018-08-04T07:39:15.227Z,57.55
2018-08-04T07:41:43.490Z,57.73
2018-08-04T07:44:11.774Z,57.25
2018-08-04T07:46:41.077Z,57.58
2018-08-04T07:49:09.370Z,55.75
2018-08-04T07:51:37.649Z,56.06
2018-08-04T07:54:06.310Z,55.81
2018-08-04T07:56:34.584Z,55.20
2018-08-04T07:59:03.002Z,54.07
2018-08-04T08:01:31.297Z,55.81
2018-08-04T08:04:01.566Z,55.27
2018-08-04T08:06:29.842Z,54.51
2018-08-04T08:08:58.098Z,53.35
2018-08-04T08:11:26.388Z,53.71
2018-08-04T08:13:54.671Z,54.65
2018-08-04T08:16:22.947Z,53.29
2018-08-04T08:18:51.225Z,52.80
2018-08-04T08:21:19.716Z,52.18
2018-08-04T08:23:49.020Z,52.57
2018-08-04T08:26:17.281Z,49.90
2018-08-04T08:28:45.598Z,49.49
2018-08-04T08:31:13.947Z,51.55
2018-08-04T08:33:42.318Z,52.71
2018-08-04T08:36:10.838Z,53.37
2018-08-04T08:38:39.140Z,52.57
2018-08-04T08:41:07.412Z,51.59
2018-08-04T08:43:35.753Z,51.30
2018-08-04T08:46:05.135Z,51.39
2018-08-04T08:48:33.404Z,50.30
2018-08-04T08:51:01.693Z,49.91
2018-08-04T08:53:32.301Z,50.60
2018-08-04T08:56:00.321Z,50.62
2018-08-04T08:58:29.707Z,50.15
2018-08-04T09:00:57.945Z,50.48
2018-08-04T09:03:26.246Z,48.23
2018-08-04T09:05:55.542Z,46.32
2018-08-04T09:08:23.825Z,45.32
2018-08-04T09:10:52.102Z,45.56
2018-08-04T09:13:20.357Z,45.93
2018-08-04T09:15:48.705Z,46.72
2018-08-04T09:18:16.905Z,44.85
2018-08-04T09:20:45.190Z,44.32
2018-08-04T09:23:13.453Z,43.37
2018-08-04T09:25:41.713Z,44.16
2018-08-04T09:28:11.037Z,43.12
2018-08-04T09:30:39.315Z,42.83
2018-08-04T09:33:09.639Z,43.36
2018-08-04T09:35:37.909Z,42.87
2018-08-04T09:38:07.199Z,43.31
2018-08-04T09:40:35.491Z,42.53
2018-08-04T09:43:03.765Z,43.72
2018-08-04T09:45:32.153Z,45.35
2018-08-04T09:48:00.429Z,44.75
2018-08-04T09:50:29.822Z,43.26
2018-08-04T09:52:58.060Z,44.64
2018-08-04T09:55:26.481Z,43.74
2018-08-04T09:57:54.725Z,42.78
2018-08-04T10:01:31.304Z,42.67
2018-08-04T10:03:59.644Z,43.17
2018-08-04T10:06:28.950Z,44.56
2018-08-04T10:08:57.196Z,44.96
2018-08-04T10:11:25.486Z,46.89
2018-08-04T10:13:53.825Z,46.76
2018-08-04T10:16:22.092Z,47.18
2018-08-04T10:18:50.360Z,47.45
2018-08-04T10:21:18.638Z,48.56
2018-08-04T10:23:48.046Z,47.92
2018-08-04T10:26:16.286Z,48.59
2018-08-04T10:28:44.541Z,49.03
2018-08-04T10:31:12.792Z,49.04
2018-08-04T10:33:41.063Z,46.81
2018-08-04T10:36:09.322Z,45.26
2018-08-04T10:38:37.645Z,45.67
2018-08-04T10:41:05.869Z,45.38
2018-08-04T10:43:36.244Z,45.19
2018-08-04T10:46:04.554Z,45.84
2018-08-04T10:48:32.845Z,44.21
2018-08-04T10:51:01.103Z,43.89
2018-08-04T10:53:29.385Z,43.87
2018-08-04T10:55:57.645Z,43.44
2018-08-04T10:58:25.943Z,43.70
2018-08-04T11:00:54.204Z,43.43
2018-08-04T11:03:23.465Z,40.34
2018-08-04T11:05:52.829Z,41.38
2018-08-04T11:08:21.137Z,38.33
2018-08-04T11:10:49.394Z,44.48
2018-08-04T11:13:17.681Z,47.37
2018-08-04T11:15:45.933Z,47.59
2018-08-04T11:18:14.209Z,48.68
2018-08-04T11:20:42.440Z,50.44
2018-08-04T11:23:10.772Z,50.99
2018-08-04T11:25:40.185Z,50.95
2018-08-04T11:28:08.449Z,50.94
2018-08-04T11:30:36.736Z,49.64
2018-08-04T11:33:05.149Z,47.45
2018-08-04T11:35:33.422Z,45.31
2018-08-04T11:38:01.672Z,44.77
2018-08-04T11:40:30.862Z,44.31
2018-08-04T11:42:59.254Z,43.93
2018-08-04T11:46:30.933Z,44.77
2018-08-04T11:49:01.221Z,45.36
2018-08-04T11:51:29.518Z,47.42
2018-08-04T11:53:57.773Z,47.25
2018-08-04T11:56:26.057Z,46.69
2018-08-04T11:58:54.292Z,45.24
2018-08-04T12:01:22.564Z,44.97
2018-08-04T12:03:50.823Z,43.77
2018-08-04T12:06:19.174Z,43.40
2018-08-04T12:08:47.456Z,43.61
2018-08-04T12:11:15.823Z,42.87
2018-08-04T12:13:44.013Z,42.84
2018-08-04T12:16:12.260Z,41.98
2018-08-04T12:18:40.588Z,41.31
2018-08-04T12:21:09.933Z,40.26
2018-08-04T12:23:38.213Z,41.17
2018-08-04T12:26:06.490Z,41.08
2018-08-04T12:28:34.753Z,41.30
2018-08-04T12:31:02.988Z,44.11
2018-08-04T12:33:31.265Z,44.22
2018-08-04T12:35:59.515Z,44.53
2018-08-04T12:38:29.852Z,46.33
2018-08-04T12:41:03.318Z,46.67
2018-08-04T12:43:31.598Z,46.05
2018-08-04T12:45:59.868Z,46.55
2018-08-04T12:48:29.650Z,44.68
2018-08-04T12:50:59.729Z,47.02
2018-08-04T12:53:28.697Z,46.32
2018-08-04T12:55:57.373Z,46.53
2018-08-04T12:58:25.695Z,47.54
2018-08-04T13:00:55.005Z,47.73
2018-08-04T13:03:23.335Z,46.90
2018-08-04T13:05:51.765Z,45.50
2018-08-04T13:08:20.025Z,47.14
2018-08-04T13:10:49.465Z,45.84
2018-08-04T13:13:17.738Z,44.13
2018-08-04T13:15:46.022Z,42.82
2018-08-04T13:18:14.292Z,43.59
2018-08-04T13:20:42.595Z,44.16
2018-08-04T13:23:10.825Z,43.69
2018-08-04T13:25:39.112Z,42.84
2018-08-04T13:28:07.501Z,44.48
2018-08-04T13:30:37.305Z,45.87
2018-08-04T13:33:05.554Z,45.89
2018-08-04T13:35:33.801Z,46.18
2018-08-04T13:38:04.145Z,46.25
2018-08-04T13:40:32.614Z,46.27
2018-08-04T13:43:00.963Z,46.77
2018-08-04T13:45:29.173Z,47.38
2018-08-04T13:47:57.827Z,48.69
2018-08-04T13:50:26.122Z,48.60
2018-08-04T13:52:55.419Z,48.03
2018-08-04T13:55:23.701Z,48.05
2018-08-04T13:57:51.969Z,47.30
2018-08-04T14:00:20.201Z,45.41
2018-08-04T14:02:48.498Z,43.21
2018-08-04T14:05:16.776Z,41.35
2018-08-04T14:07:45.033Z,41.13
2018-08-04T14:10:13.494Z,41.61
2018-08-04T14:12:42.989Z,38.22
2018-08-04T14:15:11.240Z,37.09
2018-08-04T14:17:39.528Z,37.19
2018-08-04T14:20:07.876Z,35.16
2018-08-04T14:22:36.161Z,34.60
2018-08-04T14:25:04.534Z,35.59
2018-08-04T14:27:32.900Z,37.62
2018-08-04T14:30:01.176Z,38.19
2018-08-04T14:32:29.482Z,40.36
2018-08-04T14:34:57.894Z,41.68
2018-08-04T14:37:26.085Z,41.40
2018-08-04T14:39:54.356Z,37.14
2018-08-04T14:42:22.605Z,36.96
2018-08-04T14:44:50.872Z,38.63
2018-08-04T14:47:20.224Z,38.58
2018-08-04T14:49:48.488Z,40.78
2018-08-04T14:52:16.780Z,42.11
2018-08-04T14:54:45.041Z,41.62
2018-08-04T14:57:13.299Z,39.53
2018-08-04T14:59:41.627Z,37.80
2018-08-04T15:02:09.929Z,34.93
2018-08-04T15:04:38.237Z,32.40
2018-08-04T15:07:07.585Z,31.75
2018-08-04T15:09:35.864Z,31.60
2018-08-04T15:12:05.170Z,30.34
2018-08-04T15:14:33.457Z,31.66
2018-08-04T15:17:01.725Z,31.27
2018-08-04T15:19:30.992Z,32.60
2018-08-04T15:21:59.307Z,33.41
2018-08-04T15:24:27.600Z,33.32
2018-08-04T15:26:55.874Z,34.80
2018-08-04T15:29:24.112Z,34.85
2018-08-04T15:31:52.386Z,34.48
2018-08-04T15:34:20.656Z,34.36
2018-08-04T15:36:48.942Z,32.65
2018-08-04T15:39:17.205Z,33.79
2018-08-04T15:41:45.507Z,34.61
2018-08-04T15:44:13.769Z,36.66
2018-08-04T15:46:42.078Z,36.39
2018-08-04T15:49:10.313Z,38.35
2018-08-04T15:51:38.590Z,38.38
2018-08-04T15:54:06.848Z,38.65
2018-08-04T15:56:35.132Z,39.35
2018-08-04T15:59:03.373Z,38.95
2018-08-04T16:01:31.624Z,38.74
2018-08-04T16:03:59.898Z,38.57
2018-08-04T16:06:28.147Z,39.57
2018-08-04T16:08:56.421Z,39.47
2018-08-04T16:11:24.665Z,39.62
2018-08-04T16:13:52.970Z,39.66
2018-08-04T16:16:21.204Z,40.60
2018-08-04T16:18:49.468Z,42.15
2018-08-04T16:21:17.712Z,41.83
2018-08-04T16:23:45.989Z,43.03
2018-08-04T16:26:14.253Z,43.74
2018-08-04T16:28:42.525Z,43.68
2018-08-04T16:31:10.760Z,43.15
2018-08-04T16:33:39.045Z,42.56
2018-08-04T16:36:07.329Z,41.78
2018-08-04T16:38:35.597Z,42.33
2018-08-04T16:41:03.888Z,42.85
2018-08-04T16:43:33.177Z,43.20
2018-08-04T16:46:01.481Z,42.08
2018-08-04T16:48:29.717Z,42.24
2018-08-04T16:50:57.976Z,43.26
2018-08-04T16:53:26.215Z,43.44
2018-08-04T16:55:54.487Z,43.70
2018-08-04T16:58:22.720Z,43.57
2018-08-04T17:00:51.024Z,43.68
2018-08-04T17:03:19.305Z,44.38
2018-08-04T17:05:47.604Z,44.24
2018-08-04T17:08:15.856Z,45.71
2018-08-04T17:10:44.126Z,46.86
2018-08-04T17:13:12.401Z,47.39
2018-08-04T17:15:40.661Z,47.05
2018-08-04T17:18:09.052Z,46.87
2018-08-04T17:20:37.249Z,47.52
2018-08-04T17:23:05.825Z,47.61
2018-08-04T17:25:34.097Z,47.84
2018-08-04T17:28:02.373Z,47.83
2018-08-04T17:30:30.671Z,47.48
2018-08-04T17:32:58.939Z,48.10
2018-08-04T17:35:27.185Z,48.23
2018-08-04T17:37:55.461Z,48.37
2018-08-04T17:40:23.950Z,49.20
2018-08-04T17:42:52.257Z,48.56
2018-08-04T17:45:20.505Z,49.52
2018-08-04T17:47:48.808Z,49.42
2018-08-04T17:50:17.148Z,49.07
2018-08-04T17:52:45.414Z,49.08
2018-08-04T17:55:14.713Z,49.74
2018-08-04T17:57:43.089Z,50.07
2018-08-04T18:00:13.437Z,49.12
2018-08-04T18:02:41.970Z,48.74
2018-08-04T18:05:10.285Z,49.90
2018-08-04T18:07:38.845Z,49.89
2018-08-04T18:10:07.438Z,51.38
2018-08-04T18:12:35.770Z,50.92
2018-08-04T18:15:04.941Z,51.82
2018-08-04T18:17:33.176Z,53.04
2018-08-04T18:20:01.453Z,52.81
2018-08-04T18:22:29.765Z,53.47
2018-08-04T18:24:58.065Z,54.63
2018-08-04T18:27:26.337Z,54.28
2018-08-04T18:29:54.729Z,53.61
2018-08-04T18:32:22.995Z,53.87
2018-08-04T18:34:51.257Z,53.54
2018-08-04T18:37:19.512Z,53.81
2018-08-04T18:39:47.885Z,53.73
2018-08-04T18:42:16.171Z,54.30
2018-08-04T18:44:44.524Z,54.29
2018-08-04T18:47:12.733Z,55.17
2018-08-04T18:49:40.969Z,55.75
2018-08-04T18:52:09.241Z,55.73
2018-08-04T18:54:37.537Z,56.15
2018-08-04T18:57:05.793Z,55.92
2018-08-04T18:59:34.642Z,55.68
2018-08-04T19:02:02.889Z,55.71
2018-08-04T19:04:31.229Z,56.13
2018-08-04T19:06:59.466Z,55.79
2018-08-04T19:09:27.733Z,56.44
2018-08-04T19:11:56.003Z,56.58
2018-08-04T19:14:24.273Z,57.79
2018-08-04T19:16:52.512Z,57.95
2018-08-04T19:19:20.839Z,58.17
2018-08-04T19:21:49.078Z,58.21
2018-08-04T19:24:17.357Z,58.84
2018-08-04T19:26:45.606Z,58.33
2018-08-04T19:29:13.876Z,59.49
2018-08-04T19:31:42.141Z,59.37
2018-08-04T19:34:10.417Z,59.71
2018-08-04T19:36:38.665Z,59.45
2018-08-04T19:39:08.522Z,59.91
2018-08-04T19:41:38.825Z,59.54
2018-08-04T19:44:07.350Z,60.41
2018-08-04T19:46:35.654Z,59.82
2018-08-04T19:49:05.969Z,60.44
2018-08-04T19:51:34.393Z,59.88
2018-08-04T19:54:02.821Z,60.45
2018-08-04T19:56:31.218Z,60.59
2018-08-04T19:58:59.533Z,60.77
2018-08-04T20:01:29.769Z,61.26
2018-08-04T20:03:58.328Z,61.76
2018-08-04T20:06:27.667Z,62.04
2018-08-04T20:08:56.980Z,61.99
2018-08-04T20:11:25.614Z,61.78
2018-08-04T20:13:53.960Z,61.89
2018-08-04T20:16:22.228Z,61.85
2018-08-04T20:18:50.501Z,62.74
2018-08-04T20:21:18.757Z,62.57
2018-08-04T20:23:47.042Z,62.77
2018-08-04T20:26:15.330Z,63.35
2018-08-04T20:28:43.610Z,63.64
2018-08-04T20:31:11.866Z,64.21
2018-08-04T20:33:40.579Z,64.49
2018-08-04T20:36:10.857Z,64.72
2018-08-04T20:38:40.147Z,64.83
2018-08-04T20:41:08.413Z,65.21
2018-08-04T20:43:36.785Z,66.14
2018-08-04T20:46:07.207Z,66.66
2018-08-04T20:48:36.497Z,67.17
2018-08-04T20:51:04.814Z,67.29
2018-08-04T20:53:33.177Z,67.45
2018-08-04T20:56:01.569Z,67.88
2018-08-04T20:58:29.906Z,68.37
2018-08-04T21:01:09.538Z,68.37
2018-08-04T21:03:42.213Z,68.74
2018-08-04T21:06:11.582Z,68.27
2018-08-04T21:08:39.842Z,68.18
2018-08-04T21:11:08.255Z,69.33
2018-08-04T21:13:36.489Z,69.26
2018-08-04T21:16:04.810Z,68.89
2018-08-04T21:18:33.299Z,69.57
2018-08-04T21:21:01.592Z,69.66
2018-08-04T21:23:30.896Z,69.49
2018-08-04T21:25:59.252Z,69.88
2018-08-04T21:28:27.488Z,69.56
2018-08-04T21:30:57.004Z,69.96
2018-08-04T21:33:25.306Z,69.79
2018-08-04T21:35:54.681Z,69.52
2018-08-04T21:38:22.913Z,69.13
2018-08-04T21:40:51.229Z,69.33
2018-08-04T21:43:19.477Z,69.92
2018-08-04T21:45:47.810Z,70.05
2018-08-04T21:48:16.105Z,69.66
2018-08-04T21:50:44.355Z,70.44
2018-08-04T21:53:12.637Z,70.01
2018-08-04T21:55:40.885Z,69.74
2018-08-04T21:58:09.133Z,70.01
2018-08-04T22:00:41.645Z,69.91
2018-08-04T22:03:09.893Z,69.98
2018-08-04T22:05:38.241Z,70.06
2018-08-04T22:08:17.877Z,69.97
2018-08-04T22:10:46.153Z,71.00
2018-08-04T22:13:14.405Z,71.01
2018-08-04T22:15:42.669Z,71.31
2018-08-04T22:18:10.926Z,71.45
2018-08-04T22:20:39.202Z,71.00
2018-08-04T22:23:07.464Z,70.76
2018-08-04T22:25:35.771Z,70.63
2018-08-04T22:28:04.026Z,71.09
2018-08-04T22:30:32.437Z,71.71
2018-08-04T22:33:06.257Z,71.77
2018-08-04T22:35:34.505Z,72.17
2018-08-04T22:38:02.790Z,71.87
2018-08-04T22:40:31.053Z,70.99
2018-08-04T22:43:00.505Z,70.61
2018-08-04T22:45:34.296Z,71.49
2018-08-04T22:48:03.624Z,71.72
2018-08-04T22:50:31.889Z,71.68
2018-08-04T22:53:00.209Z,71.61
2018-08-04T22:55:28.457Z,71.59
2018-08-04T22:57:56.795Z,71.04
2018-08-04T23:00:26.109Z,70.45
2018-08-04T23:02:54.393Z,70.90
2018-08-04T23:05:22.649Z,70.83
2018-08-04T23:07:51.062Z,70.94
2018-08-04T23:10:20.407Z,71.44
2018-08-04T23:12:48.705Z,70.70
2018-08-04T23:15:16.980Z,70.08
2018-08-04T23:17:46.324Z,71.88
2018-08-04T23:20:14.637Z,71.40
2018-08-04T23:22:42.918Z,72.08
2018-08-04T23:25:11.340Z,71.46
2018-08-04T23:28:42.848Z,71.51
2018-08-04T23:31:11.108Z,72.04
2018-08-04T23:33:39.404Z,73.09
2018-08-04T23:36:07.791Z,72.52
2018-08-04T23:38:36.077Z,72.60
2018-08-04T23:41:04.344Z,72.33
2018-08-04T23:43:32.639Z,71.74
2018-08-04T23:46:00.921Z,72.37
2018-08-04T23:48:29.271Z,72.10
2018-08-04T23:50:57.566Z,71.03
2018-08-04T23:53:25.841Z,70.85
2018-08-04T23:55:54.117Z,71.29
2018-08-04T23:58:22.389Z,70.26
